Ellerslie, Maryland
Current Conditions -  °F | °C
As of 1:28 AM on Wednesday 26 Nov 2014 (Local Time) from KCBE Reporting Station
Clear Clear  
Wind Chill: 36°   Ceiling: Unl
Heat Index: 41°   Visibility: 10mi
Dew Point: 28°   Wind: 7mph
Humidity: 61%   Direction: 360°N
Pressure: 30.2"   Gusts: NA
Location:  39.72°N, 78.77°W
Report Text: KCBE 260628Z AUTO 36006KT 10SM CLR 05/M02 A3020 RMK AO1
Loading
Personal Weather Stations






























Interactive Weather Map New forecast layout! Learn more

10-Day Weather Forecast

Advertisements
Track Severe Weather on mobile